createdAt,value
2018-03-31T00:00:25.150Z,6.77
2018-03-31T00:02:52.419Z,5.60
2018-03-31T00:05:19.444Z,6.33
2018-03-31T00:07:46.833Z,6.60
2018-03-31T00:10:13.875Z,6.60
2018-03-31T00:12:40.810Z,7.67
2018-03-31T00:15:08.252Z,3.93
2018-03-31T00:17:35.624Z,5.93
2018-03-31T00:20:02.759Z,7.07
2018-03-31T00:22:29.806Z,4.63
2018-03-31T00:24:57.265Z,4.03
2018-03-31T00:27:24.723Z,6.40
2018-03-31T00:29:52.280Z,5.83
2018-03-31T00:32:19.742Z,7.73
2018-03-31T00:34:47.130Z,5.67
2018-03-31T00:37:14.184Z,7.03
2018-03-31T00:39:41.191Z,6.87
2018-03-31T00:42:08.566Z,5.13
2018-03-31T00:44:35.593Z,6.97
2018-03-31T00:47:02.879Z,7.07
2018-03-31T00:49:29.896Z,7.97
2018-03-31T00:51:57.251Z,9.50
2018-03-31T00:54:24.609Z,6.43
2018-03-31T00:56:52.164Z,6.97
2018-03-31T00:59:19.529Z,5.43
2018-03-31T01:01:46.566Z,5.67
2018-03-31T01:04:13.939Z,5.87
2018-03-31T01:06:48.992Z,5.20
2018-03-31T01:09:16.026Z,3.73
2018-03-31T01:11:43.155Z,5.07
2018-03-31T01:14:10.451Z,3.97
2018-03-31T01:16:37.457Z,4.20
2018-03-31T01:19:05.324Z,4.77
2018-03-31T01:21:32.372Z,7.17
2018-03-31T01:23:59.831Z,6.03
2018-03-31T01:26:27.219Z,5.20
2018-03-31T01:28:54.335Z,5.20
2018-03-31T01:31:21.691Z,4.73
2018-03-31T01:33:49.353Z,5.90
2018-03-31T01:36:16.400Z,6.70
2018-03-31T01:38:43.452Z,5.23
2018-03-31T01:41:10.908Z,5.33
2018-03-31T01:43:38.364Z,4.50
2018-03-31T01:46:05.721Z,4.33
2018-03-31T01:48:33.179Z,4.93
2018-03-31T01:51:00.533Z,4.50
2018-03-31T01:53:27.913Z,4.43
2018-03-31T01:55:54.836Z,5.30
2018-03-31T01:58:22.294Z,6.17
2018-03-31T02:00:49.980Z,6.20
2018-03-31T02:03:17.106Z,7.90
2018-03-31T02:05:44.460Z,5.97
2018-03-31T02:08:11.920Z,6.53
2018-03-31T02:10:39.375Z,6.33
2018-03-31T02:13:06.833Z,6.00
2018-03-31T02:15:34.289Z,4.43
2018-03-31T02:18:01.646Z,5.77
2018-03-31T02:20:28.692Z,6.53
2018-03-31T02:22:56.082Z,5.70
2018-03-31T02:25:23.014Z,6.77
2018-03-31T02:27:50.146Z,7.53
2018-03-31T02:30:22.929Z,10.27
2018-03-31T02:32:49.885Z,6.93
2018-03-31T02:35:17.331Z,6.83
2018-03-31T02:37:44.790Z,9.43
2018-03-31T02:40:12.246Z,7.80
2018-03-31T02:42:39.602Z,7.07
2018-03-31T02:45:07.780Z,8.77
2018-03-31T02:47:34.824Z,10.57
2018-03-31T02:50:02.283Z,7.20
2018-03-31T02:52:29.636Z,7.80
2018-03-31T02:54:57.939Z,6.67
2018-03-31T02:57:24.880Z,6.57
2018-03-31T02:59:51.942Z,8.13
2018-03-31T03:02:18.960Z,8.53
2018-03-31T03:04:46.416Z,7.17
2018-03-31T03:07:13.461Z,7.37
2018-03-31T03:09:40.835Z,9.63
2018-03-31T03:12:07.864Z,9.47
2018-03-31T03:14:35.320Z,11.10
2018-03-31T03:17:02.726Z,7.60
2018-03-31T03:19:29.724Z,9.63
2018-03-31T03:21:56.877Z,7.67
2018-03-31T03:24:24.443Z,11.10
2018-03-31T03:26:51.809Z,11.33
2018-03-31T03:29:18.838Z,8.17
2018-03-31T03:31:45.992Z,6.80
2018-03-31T03:34:12.959Z,10.00
2018-03-31T03:36:39.896Z,15.00
2018-03-31T03:39:06.862Z,7.50
2018-03-31T03:41:33.893Z,11.90
2018-03-31T03:44:00.926Z,13.30
2018-03-31T03:46:28.378Z,10.40
2018-03-31T03:48:55.840Z,8.83
2018-03-31T03:51:23.192Z,8.13
2018-03-31T03:53:50.652Z,9.03
2018-03-31T03:56:17.965Z,9.97
2018-03-31T03:58:44.978Z,10.47
2018-03-31T04:01:12.421Z,12.00
2018-03-31T04:03:39.456Z,10.23
2018-03-31T04:06:06.608Z,12.77
2018-03-31T04:08:34.373Z,9.67
2018-03-31T04:11:01.696Z,11.50
2018-03-31T04:13:28.673Z,10.07
2018-03-31T04:15:56.051Z,9.57
2018-03-31T04:18:23.104Z,11.97
2018-03-31T04:20:51.171Z,11.27
2018-03-31T04:23:18.195Z,11.40
2018-03-31T04:25:45.552Z,8.33
2018-03-31T04:28:12.954Z,14.10
2018-03-31T04:30:40.363Z,8.97
2018-03-31T04:33:07.824Z,9.00
2018-03-31T04:35:35.280Z,11.53
2018-03-31T04:38:02.736Z,10.83
2018-03-31T04:40:30.194Z,14.40
2018-03-31T04:42:57.879Z,8.87
2018-03-31T04:45:24.826Z,11.80
2018-03-31T04:47:52.773Z,11.33
2018-03-31T04:50:20.230Z,12.03
2018-03-31T04:52:47.687Z,10.33
2018-03-31T04:55:16.579Z,12.23
2018-03-31T04:57:44.035Z,9.17
2018-03-31T05:00:11.494Z,10.53
2018-03-31T05:02:38.874Z,11.90
2018-03-31T05:05:05.922Z,13.20
2018-03-31T05:07:32.868Z,12.27
2018-03-31T05:09:59.790Z,9.40
2018-03-31T05:12:27.452Z,12.97
2018-03-31T05:14:54.926Z,11.77
2018-03-31T05:17:24.013Z,14.23
2018-03-31T05:19:52.411Z,14.83
2018-03-31T05:22:19.433Z,16.93
2018-03-31T05:24:46.893Z,14.03
2018-03-31T05:27:14.171Z,47.87
2018-03-31T05:29:41.191Z,13.83
2018-03-31T05:32:08.649Z,18.23
2018-03-31T05:34:36.105Z,10.33
2018-03-31T05:37:03.581Z,10.67
2018-03-31T05:39:30.462Z,14.47
2018-03-31T05:41:57.556Z,17.03
2018-03-31T05:44:25.028Z,11.63
2018-03-31T05:46:52.912Z,12.87
2018-03-31T05:49:20.646Z,11.83
2018-03-31T05:51:48.035Z,14.07
2018-03-31T05:54:15.049Z,14.13
2018-03-31T05:56:42.611Z,20.93
2018-03-31T05:59:10.070Z,12.13
2018-03-31T06:01:37.414Z,15.57
2018-03-31T06:04:04.575Z,13.23
2018-03-31T06:06:32.031Z,11.93
2018-03-31T06:08:59.496Z,13.43
2018-03-31T06:11:27.048Z,12.57
2018-03-31T06:13:54.507Z,14.80
2018-03-31T06:16:21.964Z,12.10
2018-03-31T06:18:49.523Z,15.83
2018-03-31T06:21:16.879Z,15.13
2018-03-31T06:23:44.668Z,12.13
2018-03-31T06:26:11.692Z,13.70
2018-03-31T06:28:39.149Z,11.67
2018-03-31T06:31:06.607Z,17.00
2018-03-31T06:33:41.548Z,12.90
2018-03-31T06:36:08.925Z,12.50
2018-03-31T06:38:35.945Z,9.50
2018-03-31T06:41:02.992Z,11.90
2018-03-31T06:43:30.449Z,12.57
2018-03-31T06:45:57.818Z,10.30
2018-03-31T06:48:24.749Z,13.23
2018-03-31T06:50:52.309Z,11.03
2018-03-31T06:53:19.768Z,13.10
2018-03-31T06:55:47.225Z,11.00
2018-03-31T06:58:14.789Z,9.40
2018-03-31T07:00:42.242Z,12.50
2018-03-31T07:03:09.706Z,11.40
2018-03-31T07:05:36.662Z,11.30
2018-03-31T07:08:03.695Z,9.30
2018-03-31T07:10:31.202Z,13.30
2018-03-31T07:12:58.441Z,13.63
2018-03-31T07:15:25.569Z,9.40
2018-03-31T07:18:08.065Z,13.60
2018-03-31T07:20:35.550Z,12.03
2018-03-31T07:23:04.640Z,10.30
2018-03-31T07:25:31.563Z,9.57
2018-03-31T07:27:59.021Z,12.30
2018-03-31T07:30:26.683Z,10.70
2018-03-31T07:32:54.756Z,12.87
2018-03-31T07:35:21.804Z,13.70
2018-03-31T07:38:08.410Z,11.37
2018-03-31T07:40:36.076Z,13.33
2018-03-31T07:43:04.862Z,10.90
2018-03-31T07:45:32.218Z,10.50
2018-03-31T07:47:59.675Z,9.47
2018-03-31T07:50:27.235Z,10.87
2018-03-31T07:52:54.618Z,7.80
2018-03-31T07:55:21.536Z,15.63
2018-03-31T07:57:49.100Z,9.43
2018-03-31T08:00:16.253Z,11.20
2018-03-31T08:02:43.295Z,9.93
2018-03-31T08:05:12.229Z,12.80
2018-03-31T08:07:40.392Z,11.53
2018-03-31T08:10:27.578Z,12.03
2018-03-31T08:13:00.694Z,11.20
2018-03-31T08:15:29.151Z,13.07
2018-03-31T08:17:56.613Z,10.17
2018-03-31T08:20:24.480Z,12.03
2018-03-31T08:22:52.155Z,13.80
2018-03-31T08:25:19.186Z,11.03
2018-03-31T08:27:46.568Z,13.63
2018-03-31T08:33:27.061Z,15.03
2018-03-31T08:35:54.073Z,11.43
2018-03-31T08:38:21.456Z,10.47
2018-03-31T08:40:48.501Z,9.90
2018-03-31T08:43:15.626Z,9.77
2018-03-31T08:45:42.582Z,12.57
2018-03-31T08:48:09.953Z,11.27
2018-03-31T08:50:36.923Z,13.13
2018-03-31T08:53:04.228Z,16.43
2018-03-31T08:55:31.629Z,11.00
2018-03-31T08:57:58.837Z,11.67
2018-03-31T09:00:25.884Z,8.13
2018-03-31T09:02:53.262Z,8.53
2018-03-31T09:05:40.769Z,10.83
2018-03-31T09:08:08.121Z,9.43
2018-03-31T09:10:35.272Z,11.57
2018-03-31T09:13:03.345Z,10.13
2018-03-31T09:15:30.807Z,10.60
2018-03-31T09:18:05.121Z,9.67
2018-03-31T09:20:32.481Z,14.63
2018-03-31T09:23:02.685Z,13.23
2018-03-31T09:25:29.646Z,12.63
2018-03-31T09:28:04.162Z,11.50
2018-03-31T09:30:31.833Z,15.17
2018-03-31T09:32:59.210Z,9.53
2018-03-31T09:35:26.233Z,9.60
2018-03-31T09:37:54.099Z,11.80
2018-03-31T09:40:21.661Z,27.70
2018-03-31T09:42:49.118Z,13.50
2018-03-31T09:45:16.585Z,11.87
2018-03-31T09:47:44.188Z,16.80
2018-03-31T09:50:18.959Z,19.33
2018-03-31T09:52:50.614Z,16.80
2018-03-31T09:55:23.141Z,18.60
2018-03-31T09:57:57.712Z,18.53
2018-03-31T10:00:34.900Z,18.97
2018-03-31T10:03:06.762Z,16.27
2018-03-31T10:05:42.310Z,16.00
2018-03-31T10:08:15.418Z,14.03
2018-03-31T10:10:46.195Z,18.83
2018-03-31T10:13:17.581Z,17.00
2018-03-31T10:15:55.802Z,18.20
2018-03-31T10:18:29.826Z,11.37
2018-03-31T10:20:58.728Z,13.10
2018-03-31T10:23:31.786Z,17.60
2018-03-31T10:26:04.214Z,20.57
2018-03-31T10:31:20.372Z,15.10
2018-03-31T10:33:49.242Z,12.77
2018-03-31T10:36:18.292Z,13.67
2018-03-31T10:38:47.834Z,12.67
2018-03-31T10:41:16.326Z,13.97
2018-03-31T10:43:44.832Z,12.63
2018-03-31T10:46:14.472Z,14.97
2018-03-31T10:48:43.942Z,17.87
2018-03-31T10:51:14.995Z,13.10
2018-03-31T10:53:45.542Z,21.63
2018-03-31T10:56:19.292Z,16.80
2018-03-31T10:58:49.303Z,13.73
2018-03-31T11:01:23.451Z,14.23
2018-03-31T11:03:53.468Z,16.17
2018-03-31T11:06:26.264Z,13.40
2018-03-31T11:09:01.434Z,12.73
2018-03-31T11:11:31.339Z,16.93
2018-03-31T11:14:01.103Z,17.73
2018-03-31T11:16:29.153Z,18.17
2018-03-31T11:21:35.175Z,16.47
2018-03-31T11:24:07.139Z,20.33
2018-03-31T11:26:38.589Z,21.40
2018-03-31T11:29:17.716Z,20.90
2018-03-31T11:31:55.589Z,18.77
2018-03-31T11:34:29.115Z,24.97
2018-03-31T11:36:56.967Z,24.10
2018-03-31T11:39:25.163Z,18.70
2018-03-31T11:41:54.033Z,18.50
2018-03-31T11:44:34.221Z,17.30
2018-03-31T11:47:08.098Z,16.17
2018-03-31T11:49:39.997Z,25.57
2018-03-31T11:52:15.621Z,18.50
2018-03-31T11:54:46.246Z,17.33
2018-03-31T11:57:15.474Z,17.03
2018-03-31T11:59:44.989Z,19.77
2018-03-31T12:02:13.241Z,23.17
2018-03-31T12:04:43.557Z,22.47
2018-03-31T12:07:12.358Z,21.23
2018-03-31T12:09:43.908Z,21.03
2018-03-31T12:14:48.858Z,16.53
2018-03-31T12:17:17.969Z,15.37
2018-03-31T12:19:46.023Z,14.63
2018-03-31T12:22:15.840Z,20.80
2018-03-31T12:24:45.083Z,24.43
2018-03-31T12:27:14.238Z,23.93
2018-03-31T12:29:49.588Z,20.90
2018-03-31T12:32:19.945Z,18.40
2018-03-31T12:34:49.395Z,21.87
2018-03-31T12:37:18.098Z,22.03
2018-03-31T12:39:45.790Z,18.20
2018-03-31T12:42:14.650Z,16.37
2018-03-31T12:44:47.693Z,17.90
2018-03-31T12:47:17.953Z,18.77
2018-03-31T12:49:46.958Z,21.23
2018-03-31T12:52:16.700Z,14.47
2018-03-31T12:55:04.780Z,17.37
2018-03-31T12:57:48.657Z,16.67
2018-03-31T13:00:21.408Z,19.37
2018-03-31T13:02:52.682Z,16.50
2018-03-31T13:05:27.202Z,13.93
2018-03-31T13:07:56.708Z,20.63
2018-03-31T13:10:27.238Z,13.43
2018-03-31T13:12:57.562Z,17.27
2018-03-31T13:15:27.575Z,18.50
2018-03-31T13:17:56.951Z,15.20
2018-03-31T13:20:26.689Z,19.17
2018-03-31T13:23:09.101Z,14.23
2018-03-31T13:25:37.457Z,13.90
2018-03-31T13:28:07.680Z,16.37
2018-03-31T13:30:37.274Z,13.23
2018-03-31T13:33:12.310Z,18.63
2018-03-31T13:35:40.518Z,15.87
2018-03-31T13:38:07.693Z,14.50
2018-03-31T13:40:35.812Z,15.87
2018-03-31T13:43:02.847Z,21.53
2018-03-31T13:45:29.808Z,19.37
2018-03-31T13:47:57.000Z,19.97
2018-03-31T13:50:24.393Z,13.27
2018-03-31T13:52:58.173Z,20.60
2018-03-31T13:55:25.059Z,21.70
2018-03-31T13:57:53.309Z,21.83
2018-03-31T14:00:20.132Z,21.50
2018-03-31T14:02:46.981Z,19.30
2018-03-31T14:05:13.784Z,18.23
2018-03-31T14:07:44.372Z,17.90
2018-03-31T14:10:13.754Z,17.83
2018-03-31T14:15:38.167Z,13.97
2018-03-31T14:18:08.325Z,14.87
2018-03-31T14:20:37.831Z,15.30
2018-03-31T14:23:07.956Z,15.03
2018-03-31T14:25:37.686Z,13.30
2018-03-31T14:28:12.733Z,15.33
2018-03-31T14:30:42.512Z,18.43
2018-03-31T14:33:09.591Z,15.77
2018-03-31T14:35:36.481Z,14.10
2018-03-31T14:38:04.145Z,18.02
2018-03-31T14:40:55.265Z,17.43
2018-03-31T14:43:30.708Z,16.40
2018-03-31T14:46:00.220Z,16.50
2018-03-31T14:48:29.297Z,16.47
2018-03-31T14:51:01.040Z,13.03
2018-03-31T14:53:30.594Z,14.70
2018-03-31T14:56:04.052Z,13.33
2018-03-31T14:58:46.284Z,10.93
2018-03-31T15:01:16.358Z,18.33
2018-03-31T15:03:45.641Z,15.97
2018-03-31T15:06:20.847Z,17.23
2018-03-31T15:11:45.147Z,17.50
2018-03-31T15:14:16.626Z,16.43
2018-03-31T15:16:46.987Z,16.77
2018-03-31T15:19:17.199Z,17.97
2018-03-31T15:21:50.810Z,12.13
2018-03-31T15:24:20.350Z,16.70
2018-03-31T15:26:49.692Z,17.53
2018-03-31T15:29:19.529Z,16.67
2018-03-31T15:31:49.081Z,13.93
2018-03-31T15:34:18.980Z,12.20
2018-03-31T15:36:50.466Z,15.80
2018-03-31T15:39:27.895Z,14.83
2018-03-31T15:41:59.777Z,16.70
2018-03-31T15:44:29.271Z,16.43
2018-03-31T15:46:58.701Z,19.60
2018-03-31T15:49:29.631Z,14.93
2018-03-31T15:52:02.044Z,19.07
2018-03-31T15:54:37.307Z,15.33
2018-03-31T15:57:06.631Z,16.33
2018-03-31T15:59:36.378Z,17.60
2018-03-31T16:02:10.486Z,13.40
2018-03-31T16:04:43.757Z,19.27
2018-03-31T16:07:13.319Z,15.70
2018-03-31T16:09:45.907Z,13.40
2018-03-31T16:12:15.379Z,16.33
2018-03-31T16:14:45.269Z,16.83
2018-03-31T16:17:16.762Z,14.07
2018-03-31T16:19:47.810Z,14.13
2018-03-31T16:22:35.481Z,16.70
2018-03-31T16:25:12.851Z,12.90
2018-03-31T16:27:46.490Z,15.43
2018-03-31T16:30:16.871Z,14.70
2018-03-31T16:32:46.472Z,15.60
2018-03-31T16:35:16.208Z,14.47
2018-03-31T16:37:45.957Z,22.53
2018-03-31T16:43:08.573Z,22.03
2018-03-31T16:45:38.409Z,21.33
2018-03-31T16:48:18.305Z,24.13
2018-03-31T16:50:52.357Z,20.53
2018-03-31T16:53:22.766Z,22.50
2018-03-31T16:55:52.322Z,24.87
2018-03-31T16:58:24.439Z,21.83
2018-03-31T17:00:54.166Z,25.77
2018-03-31T17:03:27.606Z,27.10
2018-03-31T17:06:03.120Z,24.70
2018-03-31T17:08:33.149Z,24.23
2018-03-31T17:11:25.390Z,25.97
2018-03-31T17:13:55.717Z,20.20
2018-03-31T17:16:38.392Z,24.63
2018-03-31T17:19:09.806Z,18.93
2018-03-31T17:21:40.220Z,23.03
2018-03-31T17:24:22.912Z,25.73
2018-03-31T17:26:59.630Z,24.13
2018-03-31T17:29:33.257Z,26.53
2018-03-31T17:32:02.688Z,23.23
2018-03-31T17:34:36.611Z,23.27
2018-03-31T17:37:09.597Z,22.50
2018-03-31T17:39:41.282Z,30.37
2018-03-31T17:42:20.571Z,21.70
2018-03-31T17:44:59.437Z,10.70
2018-03-31T17:47:34.186Z,21.63
2018-03-31T17:50:18.426Z,21.63
2018-03-31T17:52:48.177Z,20.07
2018-03-31T17:55:18.300Z,17.73
2018-03-31T17:57:48.761Z,23.83
2018-03-31T18:00:18.566Z,18.70
2018-03-31T18:02:48.232Z,19.10
2018-03-31T18:05:19.289Z,25.30
2018-03-31T18:07:52.830Z,21.97
2018-03-31T18:10:22.319Z,22.47
2018-03-31T18:13:07.289Z,17.30
2018-03-31T18:15:37.742Z,25.63
2018-03-31T18:18:07.821Z,25.27
2018-03-31T18:20:37.308Z,30.60
2018-03-31T18:23:07.192Z,32.13
2018-03-31T18:25:43.471Z,22.57
2018-03-31T18:28:13.996Z,25.53
2018-03-31T18:30:43.843Z,26.53
2018-03-31T18:33:17.540Z,18.00
2018-03-31T18:35:54.219Z,19.10
2018-03-31T18:38:23.675Z,24.10
2018-03-31T18:40:53.303Z,23.40
2018-03-31T18:43:22.943Z,30.73
2018-03-31T18:45:52.573Z,36.27
2018-03-31T18:48:24.419Z,32.23
2018-03-31T18:50:55.064Z,29.53
2018-03-31T18:53:32.916Z,34.77
2018-03-31T18:56:02.850Z,33.00
2018-03-31T18:58:32.288Z,31.10
2018-03-31T19:01:03.230Z,37.13
2018-03-31T19:03:33.347Z,34.47
2018-03-31T19:06:03.701Z,37.70
2018-03-31T19:08:37.860Z,34.57
2018-03-31T19:11:07.465Z,33.60
2018-03-31T19:13:37.440Z,36.13
2018-03-31T19:16:07.731Z,36.53
2018-03-31T19:18:37.733Z,39.80
2018-03-31T19:21:07.480Z,35.33
2018-03-31T19:23:37.756Z,39.13
2018-03-31T19:26:07.663Z,41.40
2018-03-31T19:28:37.465Z,32.37
2018-03-31T19:31:06.852Z,32.90
2018-03-31T19:33:33.909Z,35.30
2018-03-31T19:36:06.834Z,33.77
2018-03-31T19:38:37.103Z,27.90
2018-03-31T19:41:03.971Z,35.63
2018-03-31T19:43:31.207Z,39.13
2018-03-31T19:45:58.017Z,38.20
2018-03-31T19:48:25.284Z,36.20
2018-03-31T19:50:52.101Z,32.23
2018-03-31T19:53:19.311Z,37.73
2018-03-31T19:55:46.189Z,37.83
2018-03-31T19:58:13.026Z,33.93
2018-03-31T20:00:50.200Z,37.40
2018-03-31T20:03:17.041Z,45.00
2018-03-31T20:05:45.939Z,37.67
2018-03-31T20:08:12.754Z,42.13
2018-03-31T20:10:39.575Z,32.27
2018-03-31T20:13:09.730Z,34.37
2018-03-31T20:15:36.542Z,34.83
2018-03-31T20:18:21.156Z,28.83
2018-03-31T20:20:48.370Z,32.13
2018-03-31T20:23:15.616Z,36.27
2018-03-31T20:25:42.759Z,37.97
2018-03-31T20:28:09.642Z,29.53
2018-03-31T20:30:36.897Z,29.20
2018-03-31T20:33:04.110Z,28.97
2018-03-31T20:35:31.025Z,33.20
2018-03-31T20:37:58.573Z,28.67
2018-03-31T20:40:25.429Z,25.60
2018-03-31T20:42:52.278Z,33.33
2018-03-31T20:45:19.106Z,26.07
2018-03-31T20:47:45.934Z,25.63
2018-03-31T20:50:13.219Z,22.00
2018-03-31T20:52:40.071Z,23.00
2018-03-31T20:55:07.275Z,27.30
2018-03-31T20:57:34.190Z,22.50
2018-03-31T21:00:08.578Z,26.77
2018-03-31T21:02:35.484Z,25.73
2018-03-31T21:05:02.360Z,27.23
2018-03-31T21:07:29.208Z,25.40
2018-03-31T21:09:56.450Z,24.47
2018-03-31T21:12:30.696Z,20.83
2018-03-31T21:14:57.974Z,22.93
2018-03-31T21:17:30.516Z,23.17
2018-03-31T21:19:57.378Z,19.73
2018-03-31T21:22:24.734Z,17.93
2018-03-31T21:24:51.908Z,17.67
2018-03-31T21:27:18.824Z,20.03
2018-03-31T21:29:45.707Z,24.47
2018-03-31T21:32:12.561Z,19.93
2018-03-31T21:34:39.474Z,24.00
2018-03-31T21:37:06.737Z,22.33
2018-03-31T21:39:34.992Z,23.80
2018-03-31T21:42:23.498Z,20.80
2018-03-31T21:44:50.430Z,16.97
2018-03-31T21:47:17.710Z,20.03
2018-03-31T21:49:44.559Z,19.60
2018-03-31T21:52:11.416Z,15.53
2018-03-31T21:55:00.668Z,18.00
2018-03-31T21:57:27.533Z,17.13
2018-03-31T21:59:54.819Z,13.83
2018-03-31T22:02:35.666Z,18.97
2018-03-31T22:05:02.546Z,21.10
2018-03-31T22:07:31.496Z,16.97
2018-03-31T22:09:58.777Z,20.10
2018-03-31T22:12:30.575Z,15.37
2018-03-31T22:15:11.553Z,17.93
2018-03-31T22:17:38.428Z,17.87
2018-03-31T22:20:07.258Z,16.97
2018-03-31T22:22:34.125Z,16.27
2018-03-31T22:25:01.464Z,20.23
2018-03-31T22:27:30.818Z,19.97
2018-03-31T22:30:00.341Z,15.90
2018-03-31T22:32:30.413Z,15.60
2018-03-31T22:35:00.587Z,17.93
2018-03-31T22:37:30.116Z,14.07
2018-03-31T22:40:09.764Z,20.90
2018-03-31T22:42:39.012Z,18.87
2018-03-31T22:45:08.363Z,20.50
2018-03-31T22:47:35.292Z,18.43
2018-03-31T22:50:02.138Z,20.97
2018-03-31T22:52:28.988Z,22.23
2018-03-31T22:55:19.945Z,18.33
2018-03-31T22:57:50.901Z,19.33
2018-03-31T23:00:17.762Z,18.97
2018-03-31T23:02:44.626Z,20.97
2018-03-31T23:05:23.866Z,24.37
2018-03-31T23:07:51.126Z,16.00
2018-03-31T23:10:18.363Z,19.00
2018-03-31T23:12:45.624Z,18.40
2018-03-31T23:15:12.877Z,17.80
2018-03-31T23:17:40.497Z,20.13
2018-03-31T23:20:07.383Z,15.20
2018-03-31T23:22:34.227Z,17.47
2018-03-31T23:25:01.105Z,18.07
2018-03-31T23:27:27.966Z,20.47
2018-03-31T23:32:49.283Z,17.47
2018-03-31T23:35:16.168Z,16.43
2018-03-31T23:37:43.427Z,17.17
2018-03-31T23:40:10.684Z,16.93
2018-03-31T23:42:43.214Z,14.17
2018-03-31T23:45:10.442Z,18.70
2018-03-31T23:47:37.294Z,21.60
2018-03-31T23:50:04.194Z,18.80
2018-03-31T23:52:32.015Z,14.67
2018-03-31T23:54:58.891Z,20.97
2018-03-31T23:57:26.209Z,19.53
2018-03-31T23:59:53.131Z,18.03
